createdAt,value
2023-05-11T00:02:01.201Z,13.22
2023-05-11T00:04:28.958Z,13.20
2023-05-11T00:06:57.837Z,13.04
2023-05-11T00:09:25.464Z,12.97
2023-05-11T00:11:53.094Z,12.95
2023-05-11T00:14:20.710Z,12.94
2023-05-11T00:16:48.323Z,13.07
2023-05-11T00:19:15.853Z,13.11
2023-05-11T00:21:43.512Z,13.11
2023-05-11T00:24:12.350Z,13.00
2023-05-11T00:26:39.844Z,12.98
2023-05-11T00:29:07.331Z,13.00
2023-05-11T00:31:34.872Z,13.05
2023-05-11T00:34:02.400Z,12.99
2023-05-11T00:36:29.930Z,12.94
2023-05-11T00:38:57.428Z,12.95
2023-05-11T00:41:26.841Z,13.00
2023-05-11T00:43:54.391Z,13.00
2023-05-11T00:46:22.300Z,12.98
2023-05-11T00:48:50.132Z,13.01
2023-05-11T00:51:17.750Z,13.00
2023-05-11T00:53:45.307Z,13.02
2023-05-11T00:56:13.024Z,12.87
2023-05-11T00:58:41.967Z,12.89
2023-05-11T01:01:10.350Z,12.90
2023-05-11T01:03:38.341Z,12.86
2023-05-11T01:06:09.763Z,12.94
2023-05-11T01:08:42.176Z,12.98
2023-05-11T01:11:15.784Z,12.94
2023-05-11T01:13:47.900Z,12.87
2023-05-11T01:16:20.078Z,12.89
2023-05-11T01:18:53.938Z,12.97
2023-05-11T01:21:21.984Z,12.98
2023-05-11T01:24:05.878Z,13.02
2023-05-11T01:26:38.308Z,12.97
2023-05-11T01:29:24.115Z,12.87
2023-05-11T01:31:56.673Z,12.93
2023-05-11T01:34:26.187Z,12.95
2023-05-11T01:36:56.385Z,12.90
2023-05-11T01:39:30.217Z,12.95
2023-05-11T01:41:59.525Z,12.92
2023-05-11T01:44:31.341Z,12.85
2023-05-11T01:47:01.882Z,12.80
2023-05-11T01:49:30.248Z,12.80
2023-05-11T01:51:58.372Z,12.77
2023-05-11T01:54:26.710Z,12.74
2023-05-11T01:56:54.615Z,12.70
2023-05-11T01:59:22.558Z,12.61
2023-05-11T02:01:50.056Z,12.61
2023-05-11T02:04:19.834Z,12.45
2023-05-11T02:06:47.989Z,12.47
2023-05-11T02:09:17.772Z,12.44
2023-05-11T02:11:46.641Z,12.45
2023-05-11T02:14:18.851Z,12.43
2023-05-11T02:16:47.793Z,12.48
2023-05-11T02:19:15.442Z,12.47
2023-05-11T02:21:44.818Z,12.22
2023-05-11T02:24:12.692Z,12.25
2023-05-11T02:26:40.483Z,12.05
2023-05-11T02:29:08.184Z,12.17
2023-05-11T02:31:37.864Z,12.24
2023-05-11T02:34:10.472Z,12.34
2023-05-11T02:36:39.078Z,12.26
2023-05-11T02:39:12.546Z,12.35
2023-05-11T02:41:44.624Z,12.28
2023-05-11T02:44:15.430Z,12.39
2023-05-11T02:46:43.557Z,12.42
2023-05-11T02:49:14.330Z,12.27
2023-05-11T02:51:44.365Z,12.39
2023-05-11T02:54:13.658Z,12.21
2023-05-11T02:56:46.642Z,11.98
2023-05-11T02:59:14.973Z,12.18
2023-05-11T03:01:42.932Z,12.41
2023-05-11T03:04:11.797Z,12.16
2023-05-11T03:06:39.336Z,12.21
2023-05-11T03:09:10.174Z,12.16
2023-05-11T03:11:43.567Z,12.07
2023-05-11T03:14:11.669Z,11.83
2023-05-11T03:16:40.059Z,11.98
2023-05-11T03:19:08.450Z,11.81
2023-05-11T03:21:38.325Z,11.98
2023-05-11T03:24:07.717Z,12.14
2023-05-11T03:26:35.885Z,12.22
2023-05-11T03:29:05.157Z,12.28
2023-05-11T03:31:32.719Z,12.36
2023-05-11T03:34:01.235Z,12.35
2023-05-11T03:36:32.178Z,12.34
2023-05-11T03:39:00.467Z,12.46
2023-05-11T03:41:33.424Z,12.25
2023-05-11T03:44:01.353Z,12.31
2023-05-11T03:46:31.432Z,12.21
2023-05-11T03:49:00.203Z,12.19
2023-05-11T03:51:32.949Z,12.29
2023-05-11T03:54:00.935Z,12.28
2023-05-11T03:56:28.465Z,12.21
2023-05-11T03:58:55.986Z,12.23
2023-05-11T04:01:23.788Z,12.15
2023-05-11T04:03:54.824Z,12.17
2023-05-11T04:06:24.085Z,12.16
2023-05-11T04:09:02.068Z,12.24
2023-05-11T04:11:30.386Z,12.08
2023-05-11T04:13:57.910Z,12.01
2023-05-11T04:16:25.814Z,11.98
2023-05-11T04:18:54.694Z,12.10
2023-05-11T04:21:22.242Z,11.93
2023-05-11T04:23:49.761Z,11.93
2023-05-11T04:26:18.865Z,12.01
2023-05-11T04:28:46.365Z,12.03
2023-05-11T04:31:15.098Z,12.03
2023-05-11T04:33:42.736Z,11.99
2023-05-11T04:36:12.223Z,11.99
2023-05-11T04:38:40.131Z,12.00
2023-05-11T04:41:09.489Z,12.01
2023-05-11T04:43:39.035Z,11.93
2023-05-11T04:46:09.078Z,11.84
2023-05-11T04:48:36.878Z,11.84
2023-05-11T04:51:05.587Z,11.85
2023-05-11T04:53:36.729Z,12.13
2023-05-11T04:56:04.451Z,12.20
2023-05-11T04:58:32.006Z,12.11
2023-05-11T05:00:59.560Z,11.96
2023-05-11T05:03:27.164Z,12.03
2023-05-11T05:05:55.866Z,12.03
2023-05-11T05:08:23.489Z,12.09
2023-05-11T05:10:52.318Z,12.12
2023-05-11T05:13:20.113Z,12.00
2023-05-11T05:15:47.599Z,11.98
2023-05-11T05:18:15.211Z,12.02
2023-05-11T05:20:45.368Z,11.93
2023-05-11T05:23:12.878Z,11.95
2023-05-11T05:25:40.423Z,11.93
2023-05-11T05:28:09.704Z,11.90
2023-05-11T05:30:37.293Z,11.90
2023-05-11T05:33:05.146Z,11.97
2023-05-11T05:35:34.411Z,12.02
2023-05-11T05:38:02.216Z,12.08
2023-05-11T05:40:29.982Z,12.05
2023-05-11T05:42:57.628Z,12.12
2023-05-11T05:45:27.558Z,12.08
2023-05-11T05:47:55.505Z,12.08
2023-05-11T05:50:23.528Z,12.02
2023-05-11T05:52:51.141Z,12.06
2023-05-11T05:55:20.214Z,12.08
2023-05-11T05:57:50.011Z,12.10
2023-05-11T06:00:18.246Z,12.12
2023-05-11T06:02:54.083Z,12.16
2023-05-11T06:05:26.230Z,12.11
2023-05-11T06:08:05.931Z,12.10
2023-05-11T06:10:37.820Z,12.09
2023-05-11T06:13:05.982Z,12.06
2023-05-11T06:15:34.005Z,12.05
2023-05-11T06:18:11.114Z,12.03
2023-05-11T06:20:41.072Z,12.02
2023-05-11T06:23:09.018Z,12.02
2023-05-11T06:25:40.132Z,11.96
2023-05-11T06:28:08.239Z,11.95
2023-05-11T06:30:37.473Z,12.05
2023-05-11T06:33:07.521Z,12.10
2023-05-11T06:35:38.483Z,12.09
2023-05-11T06:38:09.118Z,12.15
2023-05-11T06:40:37.534Z,12.20
2023-05-11T06:43:05.086Z,12.18
2023-05-11T06:45:52.995Z,12.22
2023-05-11T06:48:23.316Z,12.25
2023-05-11T06:50:52.292Z,12.24
2023-05-11T06:53:19.867Z,12.24
2023-05-11T06:55:47.681Z,12.29
2023-05-11T06:58:15.347Z,12.29
2023-05-11T07:00:42.966Z,12.31
2023-05-11T07:03:10.589Z,12.42
2023-05-11T07:05:39.090Z,12.45
2023-05-11T07:08:08.037Z,12.47
2023-05-11T07:10:35.731Z,12.52
2023-05-11T07:13:03.394Z,12.52
2023-05-11T07:15:30.982Z,12.56
2023-05-11T07:17:58.550Z,12.62
2023-05-11T07:20:26.099Z,12.72
2023-05-11T07:22:57.540Z,12.71
2023-05-11T07:25:26.405Z,12.72
2023-05-11T07:27:53.888Z,12.73
2023-05-11T07:30:21.754Z,12.75
2023-05-11T07:32:49.684Z,12.70
2023-05-11T07:35:17.304Z,12.71
2023-05-11T07:37:44.867Z,12.73
2023-05-11T07:40:12.890Z,12.81
2023-05-11T07:42:41.707Z,12.83
2023-05-11T07:45:10.333Z,12.91
2023-05-11T07:47:38.068Z,12.95
2023-05-11T07:50:06.832Z,13.00
2023-05-11T07:52:34.412Z,13.05
2023-05-11T07:55:01.953Z,13.08
2023-05-11T07:57:29.771Z,13.11
2023-05-11T07:59:58.599Z,13.15
2023-05-11T08:02:26.150Z,13.12
2023-05-11T08:04:53.780Z,13.15
2023-05-11T08:07:21.299Z,13.13
2023-05-11T08:09:49.066Z,13.27
2023-05-11T08:12:16.661Z,13.35
2023-05-11T08:14:44.138Z,13.49
2023-05-11T08:17:15.611Z,13.67
2023-05-11T08:19:43.118Z,13.78
2023-05-11T08:22:10.754Z,13.75
2023-05-11T08:24:38.281Z,13.76
2023-05-11T08:27:05.908Z,13.71
2023-05-11T08:29:42.051Z,13.81
2023-05-11T08:32:09.828Z,13.78
2023-05-11T08:34:38.828Z,13.83
2023-05-11T08:37:06.384Z,13.95
2023-05-11T08:42:07.501Z,14.19
2023-05-11T08:44:37.744Z,14.15
2023-05-11T08:47:22.079Z,14.23
2023-05-11T08:49:53.542Z,14.28
2023-05-11T08:52:21.505Z,14.29
2023-05-11T08:54:49.143Z,14.37
2023-05-11T08:57:17.291Z,14.37
2023-05-11T08:59:46.027Z,14.35
2023-05-11T09:02:20.903Z,14.40
2023-05-11T09:04:49.291Z,14.42
2023-05-11T09:07:18.792Z,14.33
2023-05-11T09:09:47.442Z,14.41
2023-05-11T09:12:15.069Z,14.45
2023-05-11T09:14:43.052Z,14.54
2023-05-11T09:17:10.728Z,14.68
2023-05-11T09:19:38.543Z,14.65
2023-05-11T09:22:07.729Z,14.68
2023-05-11T09:24:36.691Z,14.70
2023-05-11T09:27:08.895Z,14.68
2023-05-11T09:29:36.524Z,14.68
2023-05-11T09:32:04.721Z,14.71
2023-05-11T09:34:32.280Z,14.64
2023-05-11T09:36:59.771Z,14.75
2023-05-11T09:39:38.063Z,14.84
2023-05-11T09:42:14.439Z,14.96
2023-05-11T09:44:42.389Z,15.03
2023-05-11T09:47:14.255Z,15.13
2023-05-11T09:49:43.286Z,15.22
2023-05-11T09:52:12.000Z,15.20
2023-05-11T09:54:46.433Z,15.27
2023-05-11T09:57:25.958Z,15.36
2023-05-11T09:59:53.979Z,15.43
2023-05-11T10:02:23.314Z,15.40
2023-05-11T10:04:51.702Z,15.42
2023-05-11T10:07:29.421Z,15.39
2023-05-11T10:09:59.984Z,15.47
2023-05-11T10:12:30.544Z,15.51
2023-05-11T10:15:02.542Z,15.50
2023-05-11T10:17:31.257Z,15.47
2023-05-11T10:19:59.245Z,15.44
2023-05-11T10:22:28.033Z,15.43
2023-05-11T10:24:56.869Z,15.51
2023-05-11T10:27:24.726Z,15.60
2023-05-11T10:29:53.733Z,15.59
2023-05-11T10:32:22.509Z,15.43
2023-05-11T10:34:51.797Z,15.54
2023-05-11T10:37:21.100Z,15.70
2023-05-11T10:39:50.511Z,15.82
2023-05-11T10:42:30.844Z,15.95
2023-05-11T10:45:13.644Z,16.14
2023-05-11T10:48:06.354Z,16.44
2023-05-11T10:50:43.620Z,16.76
2023-05-11T10:53:20.801Z,16.92
2023-05-11T10:56:06.202Z,17.02
2023-05-11T10:58:46.593Z,17.20
2023-05-11T11:01:32.054Z,17.34
2023-05-11T11:04:02.762Z,17.32
2023-05-11T11:06:30.378Z,16.98
2023-05-11T11:08:59.346Z,17.13
2023-05-11T11:11:31.612Z,17.25
2023-05-11T11:13:59.253Z,17.67
2023-05-11T11:16:28.589Z,17.93
2023-05-11T11:19:29.364Z,17.81
2023-05-11T11:21:57.165Z,17.64
2023-05-11T11:24:43.648Z,17.64
2023-05-11T11:27:11.370Z,17.62
2023-05-11T11:29:40.589Z,17.55
2023-05-11T11:32:28.873Z,17.52
2023-05-11T11:34:56.581Z,17.52
2023-05-11T11:37:24.186Z,17.38
2023-05-11T11:40:13.135Z,17.26
2023-05-11T11:42:44.121Z,17.30
2023-05-11T11:45:32.369Z,17.46
2023-05-11T11:48:13.300Z,17.49
2023-05-11T11:50:46.255Z,17.64
2023-05-11T11:53:15.875Z,17.77
2023-05-11T11:55:48.700Z,17.87
2023-05-11T11:58:53.913Z,17.97
2023-05-11T12:01:23.005Z,18.03
2023-05-11T12:04:11.052Z,18.11
2023-05-11T12:06:40.099Z,18.15
2023-05-11T12:09:08.215Z,17.80
2023-05-11T12:11:35.984Z,17.83
2023-05-11T12:14:03.862Z,17.77
2023-05-11T12:16:32.227Z,17.84
2023-05-11T12:19:02.851Z,17.70
2023-05-11T12:21:32.846Z,17.80
2023-05-11T12:24:02.099Z,17.95
2023-05-11T12:26:30.833Z,17.99
2023-05-11T12:29:07.715Z,17.94
2023-05-11T12:31:38.992Z,17.80
2023-05-11T12:34:08.327Z,17.75
2023-05-11T12:36:36.682Z,17.78
2023-05-11T12:39:04.779Z,17.75
2023-05-11T12:41:33.199Z,17.82
2023-05-11T12:44:00.933Z,17.89
2023-05-11T12:46:28.554Z,18.03
2023-05-11T12:48:57.309Z,17.83
2023-05-11T12:51:50.249Z,17.74
2023-05-11T12:54:31.644Z,17.54
2023-05-11T12:57:00.337Z,17.59
2023-05-11T12:59:33.176Z,17.44
2023-05-11T13:02:11.384Z,17.26
2023-05-11T13:04:40.251Z,17.14
2023-05-11T13:07:09.230Z,17.11
2023-05-11T13:09:36.823Z,17.04
2023-05-11T13:12:21.169Z,17.11
2023-05-11T13:14:49.070Z,17.39
2023-05-11T13:17:30.946Z,17.41
2023-05-11T13:19:58.640Z,17.36
2023-05-11T13:22:27.429Z,17.31
2023-05-11T13:25:02.842Z,17.20
2023-05-11T13:27:30.401Z,17.11
2023-05-11T13:29:57.923Z,16.88
2023-05-11T13:32:25.458Z,16.68
2023-05-11T13:34:52.944Z,16.67
2023-05-11T13:37:20.429Z,16.61
2023-05-11T13:39:49.252Z,16.64
2023-05-11T13:42:16.920Z,16.69
2023-05-11T13:44:44.409Z,16.70
2023-05-11T13:47:12.023Z,16.72
2023-05-11T13:49:39.702Z,16.66
2023-05-11T13:52:07.947Z,16.56
2023-05-11T13:54:35.490Z,16.62
2023-05-11T13:57:04.623Z,16.53
2023-05-11T13:59:32.111Z,16.42
2023-05-11T14:01:59.844Z,16.40
2023-05-11T14:04:27.368Z,16.40
2023-05-11T14:06:54.900Z,16.46
2023-05-11T14:09:23.688Z,16.50
2023-05-11T14:11:51.500Z,16.57
2023-05-11T14:14:20.432Z,16.52
2023-05-11T14:16:47.904Z,16.47
2023-05-11T14:19:15.831Z,16.25
2023-05-11T14:21:43.452Z,16.18
2023-05-11T14:24:12.452Z,16.16
2023-05-11T14:26:40.878Z,16.07
2023-05-11T14:29:08.593Z,16.05
2023-05-11T14:31:38.100Z,15.90
2023-05-11T14:34:05.913Z,15.71
2023-05-11T14:36:33.494Z,15.76
2023-05-11T14:39:01.187Z,15.72
2023-05-11T14:41:28.727Z,15.68
2023-05-11T14:43:56.306Z,15.60
2023-05-11T14:46:26.581Z,15.66
2023-05-11T14:48:55.934Z,15.70
2023-05-11T14:51:23.460Z,15.72
2023-05-11T14:53:52.174Z,15.63
2023-05-11T14:56:20.134Z,15.65
2023-05-11T14:58:47.683Z,15.71
2023-05-11T15:01:15.265Z,15.70
2023-05-11T15:03:42.895Z,15.73
2023-05-11T15:06:11.816Z,15.73
2023-05-11T15:08:39.298Z,15.83
2023-05-11T15:11:06.849Z,15.91
2023-05-11T15:13:34.358Z,15.96
2023-05-11T15:16:01.981Z,15.99
2023-05-11T15:18:29.624Z,15.93
2023-05-11T15:20:57.223Z,15.93
2023-05-11T15:23:26.094Z,15.86
2023-05-11T15:25:53.608Z,15.88
2023-05-11T15:28:21.525Z,15.89
2023-05-11T15:30:49.041Z,15.81
2023-05-11T15:33:16.611Z,15.53
2023-05-11T15:35:44.738Z,15.48
2023-05-11T15:38:12.239Z,15.48
2023-05-11T15:40:41.072Z,15.45
2023-05-11T15:43:08.656Z,15.44
2023-05-11T15:45:36.286Z,15.48
2023-05-11T15:48:03.831Z,15.40
2023-05-11T15:50:31.423Z,15.44
2023-05-11T15:52:58.935Z,15.46
2023-05-11T15:55:26.418Z,15.49
2023-05-11T15:57:55.664Z,15.47
2023-05-11T16:00:23.197Z,15.43
2023-05-11T16:02:51.461Z,15.34
2023-05-11T16:05:19.406Z,15.40
2023-05-11T16:07:46.892Z,15.51
2023-05-11T16:10:14.414Z,15.51
2023-05-11T16:12:41.972Z,15.50
2023-05-11T16:15:11.940Z,15.49
2023-05-11T16:17:39.557Z,15.53
2023-05-11T16:20:08.470Z,15.61
2023-05-11T16:22:37.157Z,15.82
2023-05-11T16:25:05.032Z,15.81
2023-05-11T16:27:32.532Z,16.03
2023-05-11T16:30:01.234Z,16.05
2023-05-11T16:32:34.852Z,16.05
2023-05-11T16:35:02.615Z,15.98
2023-05-11T16:37:30.117Z,16.04
2023-05-11T16:39:57.652Z,15.92
2023-05-11T16:42:25.668Z,15.87
2023-05-11T16:44:53.234Z,15.86
2023-05-11T16:47:20.792Z,15.79
2023-05-11T16:49:49.596Z,15.79
2023-05-11T16:52:17.905Z,15.79
2023-05-11T16:54:45.460Z,15.84
2023-05-11T16:57:13.604Z,15.89
2023-05-11T16:59:41.277Z,15.88
2023-05-11T17:02:08.894Z,15.85
2023-05-11T17:04:39.899Z,15.75
2023-05-11T17:07:11.360Z,15.74
2023-05-11T17:09:38.866Z,15.73
2023-05-11T17:12:09.399Z,15.77
2023-05-11T17:14:36.877Z,15.80
2023-05-11T17:17:06.794Z,15.79
2023-05-11T17:19:34.457Z,15.82
2023-05-11T17:22:02.216Z,15.85
2023-05-11T17:24:31.247Z,15.92
2023-05-11T17:26:58.956Z,15.83
2023-05-11T17:29:26.456Z,15.75
2023-05-11T17:31:54.237Z,15.71
2023-05-11T17:34:24.573Z,15.69
2023-05-11T17:36:54.660Z,15.71
2023-05-11T17:39:22.179Z,15.73
2023-05-11T17:41:51.026Z,15.77
2023-05-11T17:44:18.568Z,15.74
2023-05-11T17:46:46.253Z,15.75
2023-05-11T17:49:13.762Z,15.77
2023-05-11T17:51:41.250Z,15.77
2023-05-11T17:54:08.731Z,15.71
2023-05-11T17:56:36.449Z,15.77
2023-05-11T17:59:05.277Z,15.79
2023-05-11T18:01:34.553Z,15.83
2023-05-11T18:04:02.883Z,15.77
2023-05-11T18:06:30.727Z,15.72
2023-05-11T18:08:58.872Z,15.75
2023-05-11T18:11:27.114Z,15.81
2023-05-11T18:13:55.016Z,15.85
2023-05-11T18:16:23.994Z,15.87
2023-05-11T18:18:51.761Z,15.86
2023-05-11T18:21:19.503Z,15.82
2023-05-11T18:23:47.275Z,15.82
2023-05-11T18:26:16.160Z,15.81
2023-05-11T18:28:44.737Z,15.79
2023-05-11T18:31:12.500Z,15.72
2023-05-11T18:33:41.585Z,15.72
2023-05-11T18:36:09.101Z,15.71
2023-05-11T18:38:36.592Z,15.63
2023-05-11T18:41:04.884Z,15.59
2023-05-11T18:43:32.696Z,15.57
2023-05-11T18:46:00.499Z,15.55
2023-05-11T18:48:28.341Z,15.51
2023-05-11T18:50:57.663Z,15.56
2023-05-11T18:53:25.471Z,15.52
2023-05-11T18:55:53.940Z,15.47
2023-05-11T18:58:22.086Z,15.46
2023-05-11T19:00:50.393Z,15.48
2023-05-11T19:03:19.102Z,15.47
2023-05-11T19:05:47.023Z,15.43
2023-05-11T19:08:16.620Z,15.39
2023-05-11T19:10:45.370Z,15.38
2023-05-11T19:13:13.565Z,15.35
2023-05-11T19:15:41.220Z,15.32
2023-05-11T19:18:08.750Z,15.29
2023-05-11T19:20:37.582Z,15.21
2023-05-11T19:23:06.458Z,15.20
2023-05-11T19:25:35.398Z,15.18
2023-05-11T19:28:02.943Z,15.15
2023-05-11T19:30:30.449Z,15.13
2023-05-11T19:32:57.947Z,15.11
2023-05-11T19:35:28.007Z,15.09
2023-05-11T19:37:55.523Z,15.05
2023-05-11T19:42:57.361Z,15.02
2023-05-11T19:45:26.746Z,14.95
2023-05-11T19:47:54.302Z,14.97
2023-05-11T19:50:24.628Z,14.98
2023-05-11T19:52:53.000Z,14.99
2023-05-11T19:55:20.533Z,14.96
2023-05-11T19:57:48.071Z,14.95
2023-05-11T20:00:18.901Z,14.92
2023-05-11T20:02:47.402Z,14.89
2023-05-11T20:05:14.969Z,14.85
2023-05-11T20:07:43.035Z,14.84
2023-05-11T20:10:10.909Z,14.76
2023-05-11T20:12:39.019Z,14.73
2023-05-11T20:15:07.198Z,14.76
2023-05-11T20:17:36.377Z,14.77
2023-05-11T20:20:04.209Z,14.72
2023-05-11T20:22:32.049Z,14.65
2023-05-11T20:24:59.533Z,14.64
2023-05-11T20:27:27.035Z,14.67
2023-05-11T20:29:55.369Z,14.64
2023-05-11T20:32:22.887Z,14.65
2023-05-11T20:34:52.159Z,14.62
2023-05-11T20:37:19.827Z,14.36
2023-05-11T20:39:47.705Z,14.14
2023-05-11T20:42:15.180Z,14.07
2023-05-11T20:44:42.896Z,13.98
2023-05-11T20:47:11.141Z,13.94
2023-05-11T20:49:39.815Z,13.84
2023-05-11T20:52:10.046Z,13.77
2023-05-11T20:54:37.860Z,13.79
2023-05-11T20:57:05.631Z,13.83
2023-05-11T21:02:03.996Z,13.94
2023-05-11T21:04:32.060Z,13.87
2023-05-11T21:06:59.728Z,13.78
2023-05-11T21:09:28.540Z,13.74
2023-05-11T21:11:56.054Z,13.64
2023-05-11T21:14:23.668Z,13.59
2023-05-11T21:16:51.342Z,13.49
2023-05-11T21:19:19.621Z,13.51
2023-05-11T21:21:49.400Z,13.46
2023-05-11T21:24:16.998Z,13.44
2023-05-11T21:26:48.159Z,13.52
2023-05-11T21:29:15.844Z,13.59
2023-05-11T21:31:43.454Z,13.42
2023-05-11T21:34:10.934Z,13.31
2023-05-11T21:36:40.955Z,13.43
2023-05-11T21:39:08.480Z,13.48
2023-05-11T21:41:35.983Z,13.56
2023-05-11T21:44:04.984Z,13.49
2023-05-11T21:46:32.529Z,13.51
2023-05-11T21:49:00.158Z,13.47
2023-05-11T21:51:27.828Z,13.48
2023-05-11T21:53:55.329Z,13.50
2023-05-11T21:56:23.357Z,13.43
2023-05-11T21:58:50.865Z,13.42
2023-05-11T22:01:19.849Z,13.35
2023-05-11T22:03:47.461Z,13.29
2023-05-11T22:06:15.245Z,13.37
2023-05-11T22:08:42.714Z,13.35
2023-05-11T22:11:10.205Z,13.45
2023-05-11T22:13:37.692Z,13.34
2023-05-11T22:16:06.401Z,13.37
2023-05-11T22:18:35.267Z,13.41
2023-05-11T22:21:02.837Z,13.49
2023-05-11T22:23:31.108Z,13.48
2023-05-11T22:25:58.654Z,13.51
2023-05-11T22:28:26.126Z,13.56
2023-05-11T22:30:53.610Z,13.72
2023-05-11T22:33:21.321Z,13.47
2023-05-11T22:35:50.179Z,13.36
2023-05-11T22:38:17.753Z,13.23
2023-05-11T22:40:45.278Z,13.15
2023-05-11T22:43:12.846Z,13.12
2023-05-11T22:45:40.389Z,13.09
2023-05-11T22:48:08.025Z,13.09
2023-05-11T22:50:35.692Z,13.04
2023-05-11T22:53:04.548Z,13.08
2023-05-11T22:55:32.096Z,12.96
2023-05-11T22:57:59.663Z,12.94
2023-05-11T23:00:27.393Z,12.99
2023-05-11T23:02:55.062Z,12.99
2023-05-11T23:05:22.694Z,13.02
2023-05-11T23:07:50.261Z,13.12
2023-05-11T23:10:19.335Z,13.14
2023-05-11T23:12:47.220Z,13.11
2023-05-11T23:15:14.782Z,13.12
2023-05-11T23:17:42.354Z,13.13
2023-05-11T23:20:11.066Z,13.21
2023-05-11T23:22:38.557Z,13.18
2023-05-11T23:25:06.693Z,13.19
2023-05-11T23:27:35.551Z,13.20
2023-05-11T23:30:03.065Z,13.27
2023-05-11T23:32:30.600Z,13.31
2023-05-11T23:34:58.302Z,13.34
2023-05-11T23:37:26.383Z,13.36
2023-05-11T23:39:53.878Z,13.34
2023-05-11T23:42:21.829Z,13.29
2023-05-11T23:44:50.640Z,13.29
2023-05-11T23:47:18.285Z,13.27
2023-05-11T23:49:45.841Z,13.22
2023-05-11T23:52:13.406Z,13.21
2023-05-11T23:54:40.857Z,13.21
2023-05-11T23:57:08.347Z,13.22
2023-05-11T23:59:35.885Z,13.23
